Time;durP1;ratioP1;P1;durP2;ratioP2;P2;SDS_P1;SDS_P2;PMS_P1;PMS_P2;Temp;Humidity;BMP_temperature;BMP_pressure;BME280_temperature;BME280_humidity;BME280_pressure;Samples;Min_cycle;Max_cycle;Signal;HPM_P1;HPM_P2
2021/01/18 00:00:35;;;;;;;4.00;2.60;;;3.60;93.10;;;;;;4982543;28;20053;-57
2021/01/18 00:03:04;;;;;;;3.22;2.40;;;3.60;93.10;;;;;;4965286;28;20034;-58
2021/01/18 00:05:30;;;;;;;3.83;2.60;;;3.60;93.10;;;;;;4970666;28;20126;-57
2021/01/18 00:07:56;;;;;;;2.60;2.30;;;3.60;93.10;;;;;;4970499;28;20137;-57
2021/01/18 00:10:23;;;;;;;4.35;2.60;;;3.60;93.10;;;;;;4985290;28;20030;-58
2021/01/18 00:12:50;;;;;;;4.97;2.67;;;3.60;93.00;;;;;;4988402;28;20029;-58
2021/01/18 00:15:16;;;;;;;3.03;2.13;;;3.60;93.00;;;;;;4988382;28;20101;-57
2021/01/18 00:17:42;;;;;;;3.50;2.38;;;3.60;93.00;;;;;;4986562;28;20038;-57
2021/01/18 00:20:09;;;;;;;5.13;2.67;;;3.50;93.00;;;;;;4981943;28;20505;-57
2021/01/18 00:22:45;;;;;;;3.15;2.25;;;3.60;93.00;;;;;;4987221;28;20205;-57
2021/01/18 00:25:11;;;;;;;3.78;2.20;;;3.60;93.00;;;;;;4966350;28;20033;-58
2021/01/18 00:27:37;;;;;;;3.42;2.58;;;3.60;93.30;;;;;;4985931;28;20026;-57
2021/01/18 00:30:13;;;;;;;3.30;2.45;;;3.60;93.00;;;;;;4988619;28;20022;-57
2021/01/18 00:32:39;;;;;;;5.47;2.72;;;3.60;93.10;;;;;;4978771;28;20129;-57
2021/01/18 00:35:06;;;;;;;3.10;2.30;;;3.60;93.10;;;;;;4971445;28;20134;-58
2021/01/18 00:37:32;;;;;;;4.05;2.53;;;3.60;93.00;;;;;;4989007;28;20030;-57
2021/01/18 00:39:57;;;;;;;4.22;2.47;;;3.60;93.10;;;;;;4970096;28;20387;-58
2021/01/18 00:42:23;;;;;;;4.40;2.72;;;3.60;93.10;;;;;;4980029;28;20023;-57
2021/01/18 00:44:48;;;;;;;3.95;2.92;;;3.60;93.10;;;;;;4987564;28;20031;-57
2021/01/18 00:47:14;;;;;;;4.57;2.92;;;3.60;93.30;;;;;;4965117;28;20033;-56
2021/01/18 00:49:40;;;;;;;4.05;2.65;;;3.60;93.30;;;;;;4968724;28;20539;-57
2021/01/18 00:52:05;;;;;;;3.20;2.50;;;3.60;93.30;;;;;;4930849;29;20427;-57
2021/01/18 00:54:31;;;;;;;4.10;2.83;;;3.60;93.20;;;;;;4972365;28;20026;-58
2021/01/18 00:56:56;;;;;;;3.65;2.28;;;3.60;93.20;;;;;;4988291;28;20031;-57
2021/01/18 00:59:22;;;;;;;3.13;2.67;;;3.60;93.20;;;;;;4968649;28;20114;-58
2021/01/18 01:01:47;;;;;;;2.85;2.22;;;3.60;93.20;;;;;;4962489;28;20118;-57
2021/01/18 01:04:13;;;;;;;3.95;2.58;;;3.50;93.20;;;;;;4975320;28;20034;-57
2021/01/18 01:06:38;;;;;;;3.78;2.30;;;3.60;93.20;;;;;;4969386;28;20498;-58
2021/01/18 01:09:04;;;;;;;3.50;2.38;;;3.50;93.10;;;;;;4970022;28;20035;-57
2021/01/18 01:11:30;;;;;;;3.05;2.25;;;3.60;93.20;;;;;;4985921;28;20042;-57
2021/01/18 01:13:56;;;;;;;2.38;1.90;;;3.50;93.20;;;;;;4984642;28;20047;-57
2021/01/18 01:16:21;;;;;;;3.70;2.80;;;3.70;93.20;;;;;;4988142;28;20035;-57
2021/01/18 01:18:47;;;;;;;3.90;2.28;;;3.60;93.20;;;;;;4983480;28;20050;-57
2021/01/18 01:21:12;;;;;;;2.95;2.30;;;3.50;93.20;;;;;;4965044;28;20020;-57
2021/01/18 01:23:38;;;;;;;3.17;2.20;;;3.60;93.20;;;;;;4972067;28;20045;-57
2021/01/18 01:26:03;;;;;;;4.25;2.38;;;3.60;93.30;;;;;;4966615;28;20042;-58
2021/01/18 01:28:29;;;;;;;3.13;2.33;;;3.60;93.20;;;;;;4971495;28;20307;-57
2021/01/18 01:30:54;;;;;;;3.30;2.40;;;3.60;93.20;;;;;;4988343;28;20019;-57
2021/01/18 01:33:20;;;;;;;3.58;2.20;;;3.60;93.20;;;;;;4985632;28;20031;-57
2021/01/18 01:35:45;;;;;;;2.97;2.25;;;3.50;93.20;;;;;;4991174;28;20474;-57
2021/01/18 01:38:11;;;;;;;3.17;2.00;;;3.50;93.20;;;;;;4986991;28;20200;-58
2021/01/18 01:40:36;;;;;;;2.90;2.33;;;3.50;93.30;;;;;;4969144;28;20038;-58
2021/01/18 01:43:03;;;;;;;3.00;2.45;;;3.50;93.30;;;;;;4987376;28;20038;-58
2021/01/18 01:45:28;;;;;;;3.90;1.92;;;3.60;93.30;;;;;;4968668;28;20042;-56
2021/01/18 01:47:55;;;;;;;2.75;2.00;;;3.60;93.30;;;;;;4988285;28;20070;-58
2021/01/18 01:50:27;;;;;;;2.92;2.45;;;3.60;93.30;;;;;;4983451;28;20394;-57
2021/01/18 01:53:14;;;;;;;3.40;2.35;;;3.70;93.20;;;;;;4969940;28;20035;-57
2021/01/18 01:55:40;;;;;;;2.83;1.92;;;3.60;93.20;;;;;;4969068;28;20038;-57
2021/01/18 01:58:06;;;;;;;5.20;2.45;;;3.60;93.30;;;;;;4969095;28;20027;-57
2021/01/18 02:00:38;;;;;;;3.03;2.03;;;3.60;93.20;;;;;;4971631;28;20069;-58
2021/01/18 02:03:09;;;;;;;3.72;2.53;;;3.50;93.20;;;;;;4958292;28;20022;-57
2021/01/18 02:05:34;;;;;;;3.60;2.22;;;3.60;93.20;;;;;;4965834;28;20130;-57
2021/01/18 02:08:01;;;;;;;3.53;2.22;;;3.60;93.20;;;;;;4969414;28;20117;-58
2021/01/18 02:10:27;;;;;;;2.75;2.20;;;3.50;93.10;;;;;;4974809;28;20120;-57
2021/01/18 02:12:53;;;;;;;2.95;2.35;;;3.60;93.20;;;;;;4984754;28;20030;-57
2021/01/18 02:15:45;;;;;;;4.63;2.50;;;3.60;93.10;;;;;;4990675;28;20418;-58
2021/01/18 02:18:31;;;;;;;2.53;2.20;;;3.60;93.10;;;;;;4973321;28;20032;-57
2021/01/18 02:21:20;;;;;;;3.00;2.25;;;3.60;93.20;;;;;;4986643;28;20023;-56
2021/01/18 02:24:10;;;;;;;3.30;2.45;;;3.60;93.10;;;;;;4970933;28;20121;-57
2021/01/18 02:26:59;;;;;;;3.53;2.05;;;3.60;93.10;;;;;;4991792;28;20034;-58
2021/01/18 02:29:49;;;;;;;3.25;2.38;;;3.60;93.10;;;;;;4987238;28;20022;-58
2021/01/18 02:32:28;;;;;;;3.53;2.00;;;3.60;93.10;;;;;;4986568;28;20134;-57
2021/01/18 02:35:28;;;;;;;3.72;2.38;;;3.50;93.10;;;;;;4972977;28;20046;-58
2021/01/18 02:38:09;;;;;;;4.32;2.20;;;3.60;93.10;;;;;;4983700;28;20171;-58
2021/01/18 02:40:46;;;;;;;2.70;1.95;;;3.60;93.10;;;;;;4986688;28;20030;-58
2021/01/18 02:43:14;;;;;;;2.75;2.20;;;3.50;93.00;;;;;;4967682;28;20042;-56
2021/01/18 02:45:39;;;;;;;3.47;2.13;;;3.50;93.00;;;;;;4988313;28;20049;-57
2021/01/18 02:48:05;;;;;;;4.85;2.30;;;3.50;93.10;;;;;;4987602;28;20027;-58
2021/01/18 02:50:31;;;;;;;2.53;2.10;;;3.60;93.20;;;;;;4989569;28;20038;-57
2021/01/18 02:52:56;;;;;;;3.65;2.10;;;3.50;93.20;;;;;;4953991;28;20062;-58
2021/01/18 02:55:22;;;;;;;2.55;2.22;;;3.50;93.10;;;;;;4969081;28;20391;-58
2021/01/18 02:57:50;;;;;;;3.00;1.95;;;3.60;93.20;;;;;;4977970;28;20043;-58
2021/01/18 03:00:24;;;;;;;3.38;2.25;;;3.60;93.20;;;;;;4987913;28;20054;-58
2021/01/18 03:03:13;;;;;;;3.28;2.30;;;3.60;93.10;;;;;;4981371;28;20027;-56
2021/01/18 03:05:47;;;;;;;2.70;2.20;;;3.50;93.10;;;;;;4984899;28;20398;-57
2021/01/18 03:08:25;;;;;;;3.17;2.53;;;3.60;93.20;;;;;;4970981;28;20019;-57
2021/01/18 03:11:05;;;;;;;3.47;2.42;;;3.60;93.10;;;;;;4985475;28;20034;-58
2021/01/18 03:13:56;;;;;;;3.88;2.17;;;3.60;93.10;;;;;;4970277;28;20062;-58
2021/01/18 03:16:23;;;;;;;2.55;2.03;;;3.60;93.00;;;;;;4960471;28;20046;-58
2021/01/18 03:18:49;;;;;;;4.05;2.58;;;3.50;93.00;;;;;;4984895;28;20023;-57
2021/01/18 03:21:15;;;;;;;3.55;2.45;;;3.60;93.10;;;;;;4980930;28;20033;-57
2021/01/18 03:23:41;;;;;;;3.10;2.30;;;3.90;93.20;;;;;;4944409;28;20483;-57
2021/01/18 03:26:07;;;;;;;3.22;2.33;;;3.50;93.10;;;;;;4986124;28;20026;-57
2021/01/18 03:28:32;;;;;;;3.10;1.95;;;3.50;93.20;;;;;;4957985;28;20033;-57
2021/01/18 03:30:58;;;;;;;2.78;2.17;;;3.50;93.10;;;;;;4966535;28;20343;-58
2021/01/18 03:33:24;;;;;;;2.63;2.10;;;3.50;93.10;;;;;;4970036;28;20504;-56
2021/01/18 03:35:50;;;;;;;3.05;2.25;;;3.50;93.10;;;;;;4988190;28;20496;-57
2021/01/18 03:38:16;;;;;;;2.38;2.00;;;3.50;93.10;;;;;;4985839;28;20452;-58
2021/01/18 03:40:41;;;;;;;2.92;2.17;;;3.50;93.20;;;;;;4971992;28;20018;-58
2021/01/18 03:43:08;;;;;;;3.22;2.25;;;3.50;93.20;;;;;;4987158;28;20038;-58
2021/01/18 03:45:38;;;;;;;4.10;2.00;;;3.50;93.20;;;;;;4987960;28;20394;-58
2021/01/18 03:48:04;;;;;;;3.72;2.35;;;3.50;93.10;;;;;;4984762;28;20030;-57
2021/01/18 03:50:30;;;;;;;2.90;2.20;;;3.50;93.10;;;;;;4981249;28;20384;-58
2021/01/18 03:52:55;;;;;;;3.78;2.47;;;3.50;93.10;;;;;;4987472;28;20104;-57
2021/01/18 03:55:21;;;;;;;3.72;2.10;;;3.50;93.10;;;;;;4988107;28;20030;-58
2021/01/18 03:57:51;;;;;;;3.80;2.28;;;3.50;93.10;;;;;;4984514;28;20042;-59
2021/01/18 04:00:18;;;;;;;2.58;2.10;;;3.50;93.10;;;;;;4964680;28;20048;-58
2021/01/18 04:02:45;;;;;;;3.70;2.20;;;3.60;93.10;;;;;;4967224;28;20058;-58
2021/01/18 04:05:11;;;;;;;2.60;2.03;;;3.60;93.10;;;;;;4963327;28;20045;-57
2021/01/18 04:07:36;;;;;;;4.65;2.00;;;3.60;93.10;;;;;;4988706;28;20474;-57
2021/01/18 04:10:04;;;;;;;2.60;2.03;;;3.50;93.10;;;;;;4986281;28;20034;-58
2021/01/18 04:12:29;;;;;;;5.57;2.45;;;3.50;93.10;;;;;;4972655;28;20030;-57
2021/01/18 04:14:55;;;;;;;3.33;2.25;;;3.50;93.20;;;;;;4962824;28;20403;-57
2021/01/18 04:17:20;;;;;;;2.67;2.10;;;3.50;93.20;;;;;;4978470;28;20504;-57
2021/01/18 04:19:46;;;;;;;4.68;2.50;;;3.50;93.10;;;;;;4966375;28;20554;-57
2021/01/18 04:22:11;;;;;;;3.95;2.17;;;3.50;93.10;;;;;;4972263;28;20037;-58
2021/01/18 04:24:37;;;;;;;4.20;2.20;;;3.50;93.10;;;;;;4969808;28;20467;-58
2021/01/18 04:27:04;;;;;;;2.97;2.08;;;3.50;93.20;;;;;;4986505;28;20030;-56
2021/01/18 04:29:29;;;;;;;2.28;1.80;;;3.50;93.20;;;;;;4987263;28;20045;-59
2021/01/18 04:31:55;;;;;;;3.80;2.08;;;3.50;93.20;;;;;;4972429;28;20022;-59
2021/01/18 04:34:20;;;;;;;2.60;2.03;;;3.50;93.20;;;;;;4989046;28;20050;-58
2021/01/18 04:36:46;;;;;;;3.35;2.30;;;3.50;93.20;;;;;;4969867;28;20510;-58
2021/01/18 04:39:12;;;;;;;3.55;1.98;;;3.60;93.20;;;;;;4970954;28;20034;-57
2021/01/18 04:41:44;;;;;;;3.35;1.90;;;3.50;93.20;;;;;;4970275;28;20027;-57
2021/01/18 04:44:16;;;;;;;3.00;2.08;;;3.60;93.20;;;;;;4987757;28;20495;-58
2021/01/18 04:46:43;;;;;;;3.15;1.90;;;3.50;93.10;;;;;;4972447;28;20034;-58
2021/01/18 04:49:08;;;;;;;3.13;2.15;;;3.50;93.10;;;;;;4971087;28;20038;-57
2021/01/18 04:51:40;;;;;;;2.50;1.95;;;3.50;93.10;;;;;;4970026;28;20039;-57
2021/01/18 04:54:16;;;;;;;3.78;2.00;;;3.50;93.10;;;;;;4949679;28;20035;-57
2021/01/18 04:57:06;;;;;;;2.90;2.05;;;3.50;93.10;;;;;;4952254;28;20041;-57
2021/01/18 04:59:38;;;;;;;3.17;1.95;;;3.50;93.10;;;;;;4982850;28;20029;-57
2021/01/18 05:02:10;;;;;;;5.78;1.88;;;3.50;93.10;;;;;;4965254;28;20031;-58
2021/01/18 05:04:38;;;;;;;2.80;1.88;;;3.50;93.40;;;;;;4987201;28;20034;-58
2021/01/18 05:07:30;;;;;;;3.33;1.95;;;3.70;93.20;;;;;;4965934;28;20034;-57
2021/01/18 05:09:58;;;;;;;4.40;2.20;;;3.60;93.10;;;;;;4965536;28;20035;-57
2021/01/18 05:12:24;;;;;;;3.03;2.00;;;3.50;93.20;;;;;;4971919;28;20041;-57
2021/01/18 05:14:49;;;;;;;4.25;2.05;;;3.50;93.20;;;;;;4987899;28;20026;-57
2021/01/18 05:17:40;;;;;;;2.40;2.00;;;3.50;93.20;;;;;;4973876;28;20022;-57
2021/01/18 05:20:07;;;;;;;2.85;2.00;;;3.50;93.20;;;;;;4984962;28;20055;-57
2021/01/18 05:22:33;;;;;;;4.38;2.28;;;3.50;93.20;;;;;;4970898;28;20517;-57
2021/01/18 05:25:00;;;;;;;2.63;1.85;;;3.50;93.20;;;;;;4969633;28;20035;-57
2021/01/18 05:27:26;;;;;;;3.55;1.92;;;3.50;93.10;;;;;;4989780;28;20486;-57
2021/01/18 05:29:54;;;;;;;2.63;2.03;;;3.50;93.20;;;;;;4964826;28;20110;-58
2021/01/18 05:32:26;;;;;;;3.10;2.10;;;3.50;93.20;;;;;;4990348;28;20019;-58
2021/01/18 05:35:12;;;;;;;2.30;1.88;;;3.50;93.20;;;;;;4968208;28;20128;-58
2021/01/18 05:37:57;;;;;;;2.75;1.92;;;3.50;93.10;;;;;;4959089;28;20026;-58
2021/01/18 05:40:24;;;;;;;2.92;2.00;;;3.50;93.10;;;;;;4964840;28;20018;-57
2021/01/18 05:42:51;;;;;;;3.55;2.00;;;3.60;93.20;;;;;;4959891;28;20475;-58
2021/01/18 05:45:28;;;;;;;2.90;2.03;;;3.50;93.20;;;;;;4971303;28;20031;-57
2021/01/18 05:47:54;;;;;;;4.63;1.85;;;3.50;93.20;;;;;;4988005;28;20113;-58
2021/01/18 05:50:21;;;;;;;5.38;2.08;;;3.50;93.20;;;;;;4991091;28;20125;-58
2021/01/18 05:52:47;;;;;;;4.00;2.10;;;3.50;93.20;;;;;;4974878;28;20062;-57
2021/01/18 05:55:19;;;;;;;2.83;1.80;;;3.50;93.20;;;;;;4991782;28;20065;-56
2021/01/18 05:57:50;;;;;;;4.10;1.88;;;3.50;93.20;;;;;;4990117;28;20032;-59
2021/01/18 06:00:26;;;;;;;2.38;1.95;;;3.50;93.10;;;;;;4979894;28;20053;-57
2021/01/18 06:02:52;;;;;;;2.50;1.88;;;3.50;93.10;;;;;;4969037;28;20022;-58
2021/01/18 06:05:25;;;;;;;2.40;1.80;;;3.50;93.20;;;;;;4977606;28;20109;-58
2021/01/18 06:07:51;;;;;;;5.10;2.30;;;3.40;93.10;;;;;;4991380;28;20415;-57
2021/01/18 06:10:17;;;;;;;3.03;2.13;;;3.50;93.20;;;;;;4987984;28;20038;-57
2021/01/18 06:12:42;;;;;;;3.90;2.30;;;3.50;93.20;;;;;;4990187;28;20038;-57
2021/01/18 06:15:09;;;;;;;3.58;2.17;;;3.50;93.20;;;;;;4989801;28;20064;-56
2021/01/18 06:17:42;;;;;;;3.75;2.30;;;3.60;93.10;;;;;;4975289;28;20089;-57
2021/01/18 06:20:08;;;;;;;3.78;2.72;;;3.50;93.10;;;;;;4990480;28;20034;-58
2021/01/18 06:22:33;;;;;;;2.75;2.08;;;3.50;93.20;;;;;;4971923;28;20031;-57
2021/01/18 06:25:10;;;;;;;2.25;1.90;;;3.50;93.20;;;;;;4955568;28;20105;-57
2021/01/18 06:27:36;;;;;;;3.10;2.00;;;3.50;93.10;;;;;;4982022;28;20117;-58
2021/01/18 06:30:03;;;;;;;2.83;1.92;;;3.50;93.10;;;;;;4964166;28;20117;-58
2021/01/18 06:32:32;;;;;;;2.80;1.83;;;3.50;93.10;;;;;;4963351;28;20027;-57
2021/01/18 06:35:01;;;;;;;3.13;2.10;;;3.50;93.10;;;;;;4974946;28;20494;-58
2021/01/18 06:37:34;;;;;;;3.38;1.95;;;3.50;93.10;;;;;;4989664;28;20438;-58
2021/01/18 06:40:01;;;;;;;4.57;2.40;;;3.50;93.10;;;;;;4974621;28;20037;-58
2021/01/18 06:42:27;;;;;;;2.88;2.03;;;3.50;93.10;;;;;;4942780;28;20023;-57
2021/01/18 06:44:52;;;;;;;2.92;2.00;;;3.50;93.10;;;;;;4951491;28;20027;-58
2021/01/18 06:47:25;;;;;;;2.92;2.00;;;3.50;93.10;;;;;;4986266;28;20066;-58
2021/01/18 06:49:55;;;;;;;4.65;2.35;;;3.50;93.00;;;;;;4989329;28;20061;-57
2021/01/18 06:52:30;;;;;;;2.00;1.65;;;3.60;93.10;;;;;;4961757;28;20029;-58
2021/01/18 06:55:06;;;;;;;3.20;2.15;;;3.50;93.00;;;;;;4947029;28;20121;-58
2021/01/18 06:57:47;;;;;;;4.63;2.10;;;3.50;93.00;;;;;;4978131;28;20081;-56
2021/01/18 07:00:14;;;;;;;2.78;1.70;;;3.50;93.00;;;;;;4975994;28;20030;-57
2021/01/18 07:02:52;;;;;;;2.60;1.75;;;3.50;93.00;;;;;;4959352;28;20062;-58
2021/01/18 07:05:27;;;;;;;2.67;1.75;;;3.50;93.00;;;;;;4973316;28;20030;-58
2021/01/18 07:07:55;;;;;;;3.30;1.90;;;3.50;93.00;;;;;;4949833;28;20061;-57
2021/01/18 07:10:20;;;;;;;3.13;2.00;;;3.50;93.00;;;;;;4975816;28;20022;-57
2021/01/18 07:12:46;;;;;;;2.60;1.95;;;3.50;93.00;;;;;;4950072;28;20042;-57
2021/01/18 07:15:11;;;;;;;3.40;1.80;;;3.50;93.00;;;;;;4958072;28;21105;-57
2021/01/18 07:17:43;;;;;;;2.47;1.90;;;3.50;93.00;;;;;;4944657;28;20047;-57
2021/01/18 07:20:13;;;;;;;3.15;2.13;;;3.50;92.90;;;;;;4961991;28;20030;-59
2021/01/18 07:22:46;;;;;;;2.80;1.85;;;3.60;92.90;;;;;;4948190;28;20463;-59
2021/01/18 07:25:11;;;;;;;3.13;2.22;;;3.50;92.90;;;;;;4966330;28;20376;-57
2021/01/18 07:27:40;;;;;;;1.90;1.60;;;3.50;93.00;;;;;;4980725;28;20034;-58
2021/01/18 07:30:06;;;;;;;2.33;1.73;;;3.50;93.00;;;;;;4986551;28;20117;-57
2021/01/18 07:32:32;;;;;;;2.80;1.83;;;3.60;92.90;;;;;;4968861;28;20112;-58
2021/01/18 07:34:58;;;;;;;3.45;2.17;;;3.50;92.90;;;;;;4988760;28;20482;-57
2021/01/18 07:37:24;;;;;;;2.70;1.95;;;3.50;92.90;;;;;;4969305;28;20031;-58
2021/01/18 07:39:50;;;;;;;3.95;2.45;;;3.50;93.00;;;;;;4986418;28;20018;-58
2021/01/18 07:42:29;;;;;;;2.67;1.90;;;3.50;93.00;;;;;;4969463;28;20025;-58
2021/01/18 07:45:13;;;;;;;3.53;2.35;;;3.50;93.00;;;;;;4978006;28;20031;-58
2021/01/18 07:47:54;;;;;;;3.10;2.28;;;3.50;92.90;;;;;;4971104;28;20029;-57
2021/01/18 07:50:38;;;;;;;3.00;2.17;;;3.60;92.90;;;;;;4972294;28;20093;-58
2021/01/18 07:53:11;;;;;;;3.10;2.13;;;3.60;92.90;;;;;;4954465;28;20387;-58
2021/01/18 07:55:37;;;;;;;3.33;2.22;;;3.50;92.80;;;;;;4981791;28;20049;-57
2021/01/18 07:58:18;;;;;;;3.47;2.00;;;3.60;92.90;;;;;;4968574;28;20470;-58
2021/01/18 08:00:44;;;;;;;2.38;2.00;;;3.60;92.90;;;;;;4968258;28;20370;-58
2021/01/18 08:03:10;;;;;;;2.75;2.28;;;3.60;92.90;;;;;;4972415;28;20022;-58
2021/01/18 08:05:37;;;;;;;2.75;1.90;;;3.60;92.90;;;;;;4968407;28;20113;-58
2021/01/18 08:08:13;;;;;;;2.72;2.25;;;3.60;92.90;;;;;;4954278;28;20034;-58
2021/01/18 08:11:01;;;;;;;6.40;2.70;;;3.50;92.80;;;;;;4971757;28;20105;-57
2021/01/18 08:13:41;;;;;;;4.00;2.42;;;3.60;92.90;;;;;;4970606;28;20019;-57
2021/01/18 08:16:17;;;;;;;4.30;2.30;;;3.60;92.90;;;;;;4983912;28;20058;-57
2021/01/18 08:18:50;;;;;;;3.95;2.80;;;3.60;92.90;;;;;;4971935;28;20034;-58
2021/01/18 08:21:39;;;;;;;3.80;2.70;;;3.60;92.90;;;;;;4970097;28;20035;-59
2021/01/18 08:24:05;;;;;;;4.03;2.30;;;3.60;92.90;;;;;;4967992;28;20089;-58
2021/01/18 08:26:49;;;;;;;3.88;2.45;;;3.60;92.90;;;;;;4968418;28;20026;-58
2021/01/18 08:29:45;;;;;;;4.50;2.83;;;3.60;92.90;;;;;;4980420;28;20082;-58
2021/01/18 08:32:30;;;;;;;4.55;2.60;;;3.60;92.90;;;;;;4969810;28;20071;-57
2021/01/18 08:35:20;;;;;;;3.17;2.50;;;3.60;92.90;;;;;;4983332;28;20042;-58
2021/01/18 08:37:56;;;;;;;5.43;2.63;;;3.60;92.90;;;;;;4975292;28;20031;-56
2021/01/18 08:40:22;;;;;;;3.97;2.53;;;3.60;92.90;;;;;;4969552;28;20105;-57
2021/01/18 08:42:55;;;;;;;4.55;2.88;;;3.60;92.90;;;;;;4971612;28;20125;-59
2021/01/18 08:45:28;;;;;;;3.65;2.75;;;3.70;92.90;;;;;;4986944;28;20023;-57
2021/01/18 08:47:58;;;;;;;4.72;2.97;;;3.70;92.80;;;;;;4979266;28;20495;-58
2021/01/18 08:50:26;;;;;;;5.18;2.60;;;3.70;92.90;;;;;;4962888;28;20037;-58
2021/01/18 08:53:21;;;;;;;6.47;2.50;;;3.70;92.80;;;;;;4985576;28;20429;-58
2021/01/18 08:55:48;;;;;;;3.47;2.30;;;3.70;92.80;;;;;;4958349;28;20658;-58
2021/01/18 08:58:14;;;;;;;2.95;2.17;;;3.70;92.90;;;;;;4975429;28;20356;-59
2021/01/18 09:00:44;;;;;;;3.13;2.53;;;3.70;92.80;;;;;;4940747;28;20080;-58
2021/01/18 09:03:19;;;;;;;5.53;2.65;;;3.70;93.10;;;;;;4983026;28;20045;-58
2021/01/18 09:05:46;;;;;;;5.20;2.72;;;3.70;92.80;;;;;;4984269;28;20042;-57
2021/01/18 09:08:13;;;;;;;3.05;2.33;;;3.70;92.80;;;;;;4941530;28;20034;-57
2021/01/18 09:10:39;;;;;;;4.40;2.80;;;3.70;92.70;;;;;;4970307;28;20508;-58
2021/01/18 09:13:05;;;;;;;5.25;2.72;;;3.70;92.70;;;;;;4940579;28;20034;-57
2021/01/18 09:15:31;;;;;;;6.70;2.88;;;3.70;92.70;;;;;;4972342;28;20117;-56
2021/01/18 09:17:57;;;;;;;6.97;2.92;;;3.70;92.70;;;;;;4970822;28;20566;-58
2021/01/18 09:20:22;;;;;;;3.80;2.47;;;3.80;92.70;;;;;;4956459;28;20072;-58
2021/01/18 09:22:48;;;;;;;3.63;2.80;;;3.80;92.70;;;;;;4975087;28;20465;-57
2021/01/18 09:25:14;;;;;;;5.05;2.53;;;3.80;92.70;;;;;;4971419;28;20070;-57
2021/01/18 09:27:40;;;;;;;4.13;2.90;;;3.80;92.60;;;;;;4983485;28;20022;-58
2021/01/18 09:30:17;;;;;;;5.75;2.78;;;3.80;92.60;;;;;;4952525;28;20031;-58
2021/01/18 09:32:55;;;;;;;2.65;2.15;;;3.80;92.70;;;;;;4970792;28;20489;-58
2021/01/18 09:35:21;;;;;;;4.40;2.65;;;3.80;92.60;;;;;;4954386;28;20041;-57
2021/01/18 09:37:48;;;;;;;5.53;2.75;;;3.80;92.70;;;;;;4970794;28;20030;-58
2021/01/18 09:40:14;;;;;;;4.72;3.00;;;3.80;92.60;;;;;;4979691;28;20034;-57
2021/01/18 09:42:39;;;;;;;5.00;2.95;;;3.80;92.60;;;;;;4971314;28;20129;-58
2021/01/18 09:45:07;;;;;;;4.75;2.88;;;3.80;92.60;;;;;;4969761;28;20035;-59
2021/01/18 09:47:33;;;;;;;2.72;2.25;;;3.80;92.50;;;;;;4972794;28;20022;-58
2021/01/18 09:50:12;;;;;;;3.92;2.60;;;3.80;92.60;;;;;;4986157;28;20077;-59
2021/01/18 09:52:44;;;;;;;8.02;2.80;;;3.80;92.50;;;;;;4954188;28;20466;-58
2021/01/18 09:55:14;;;;;;;8.15;2.95;;;3.90;92.50;;;;;;4952183;28;20057;-58
2021/01/18 09:57:42;;;;;;;5.47;2.83;;;3.90;92.50;;;;;;4959992;28;20041;-59
2021/01/18 10:00:09;;;;;;;3.47;2.45;;;3.90;92.40;;;;;;4983989;28;20114;-59
2021/01/18 10:02:36;;;;;;;3.78;2.63;;;3.90;92.50;;;;;;4985131;28;20034;-58
2021/01/18 10:05:02;;;;;;;3.60;2.55;;;3.90;92.50;;;;;;4971825;28;20038;-59
2021/01/18 10:07:28;;;;;;;6.00;2.85;;;4.20;92.60;;;;;;4957136;28;20026;-57
2021/01/18 10:09:55;;;;;;;5.75;2.72;;;3.90;92.50;;;;;;4972019;28;20041;-57
2021/01/18 10:12:24;;;;;;;3.47;2.78;;;3.90;92.50;;;;;;4982143;28;20032;-59
2021/01/18 10:14:53;;;;;;;4.93;2.55;;;3.90;92.40;;;;;;4985785;28;20117;-58
2021/01/18 10:17:29;;;;;;;6.13;2.83;;;3.90;92.40;;;;;;4984874;28;20029;-58
2021/01/18 10:20:04;;;;;;;6.68;2.72;;;4.00;92.40;;;;;;4968607;28;20058;-57
2021/01/18 10:22:34;;;;;;;3.80;2.70;;;4.00;92.40;;;;;;4979752;28;20062;-59
2021/01/18 10:25:00;;;;;;;5.40;2.75;;;3.90;92.40;;;;;;4986029;28;20023;-58
2021/01/18 10:27:29;;;;;;;4.00;2.40;;;4.00;92.70;;;;;;4958610;28;20098;-57
2021/01/18 10:30:11;;;;;;;6.20;2.50;;;4.00;92.30;;;;;;4989924;28;20567;-58
2021/01/18 10:32:43;;;;;;;3.88;2.75;;;4.00;92.30;;;;;;4969869;28;20522;-57
2021/01/18 10:35:19;;;;;;;4.60;2.90;;;4.00;92.30;;;;;;4984023;28;20537;-58
2021/01/18 10:37:44;;;;;;;6.60;3.10;;;4.00;92.30;;;;;;4981992;28;20031;-58
2021/01/18 10:40:11;;;;;;;5.53;2.67;;;4.00;92.30;;;;;;4962362;28;20501;-57
2021/01/18 10:42:47;;;;;;;4.55;2.85;;;4.00;92.30;;;;;;4971347;28;20031;-58
2021/01/18 10:45:15;;;;;;;;;;;4.00;92.20;;;;;;4976899;28;20396;-58
2021/01/18 10:47:40;;;;;;;20.02;3.63;;;4.10;92.20;;;;;;4977759;28;19906;-58
2021/01/18 10:50:06;;;;;;;10.55;3.38;;;4.10;92.30;;;;;;4970861;28;20031;-58
2021/01/18 10:52:41;;;;;;;3.95;2.45;;;4.10;92.30;;;;;;4987222;28;20026;-57
2021/01/18 10:55:07;;;;;;;6.50;3.37;;;4.10;92.20;;;;;;4957478;28;20064;-58
2021/01/18 10:57:40;;;;;;;5.97;2.80;;;4.10;92.20;;;;;;4971067;28;20054;-58
2021/01/18 11:00:12;;;;;;;15.50;3.35;;;4.10;92.20;;;;;;4956643;28;20402;-57
2021/01/18 11:02:38;;;;;;;12.10;3.30;;;4.10;92.20;;;;;;4971820;28;20397;-58
2021/01/18 11:05:05;;;;;;;12.70;3.63;;;4.10;92.20;;;;;;4983556;28;20390;-59
2021/01/18 11:07:30;;;;;;;5.75;3.25;;;4.10;92.20;;;;;;4986067;28;20042;-59
2021/01/18 11:09:59;;;;;;;8.90;3.67;;;4.20;92.20;;;;;;4957835;28;20054;-59
2021/01/18 11:12:39;;;;;;;11.90;3.47;;;4.20;92.20;;;;;;4981399;28;20053;-58
2021/01/18 11:15:06;;;;;;;6.10;3.30;;;4.10;92.10;;;;;;4968140;28;20564;-59
2021/01/18 11:17:32;;;;;;;10.85;3.47;;;4.20;92.20;;;;;;4966550;28;20118;-59
2021/01/18 11:19:57;;;;;;;14.18;3.50;;;4.20;92.20;;;;;;4981312;28;20102;-57
2021/01/18 11:22:23;;;;;;;10.60;2.80;;;4.20;92.20;;;;;;4985028;28;20360;-58
2021/01/18 11:24:49;;;;;;;20.13;4.45;;;4.30;92.20;;;;;;4984108;28;20027;-59
2021/01/18 11:27:14;;;;;;;19.70;3.50;;;4.20;92.10;;;;;;4981306;28;20089;-58
2021/01/18 11:29:40;;;;;;;11.20;3.50;;;4.20;92.10;;;;;;4972569;28;20073;-57
2021/01/18 11:32:06;;;;;;;7.72;3.30;;;4.20;92.10;;;;;;4956187;28;20036;-57
2021/01/18 11:34:33;;;;;;;10.65;3.55;;;4.30;92.00;;;;;;4985746;28;20446;-58
2021/01/18 11:37:06;;;;;;;9.60;3.40;;;4.30;92.00;;;;;;4981718;28;20023;-58
2021/01/18 11:39:31;;;;;;;9.88;3.38;;;4.30;92.00;;;;;;4961109;28;20098;-58
2021/01/18 11:42:04;;;;;;;7.40;3.15;;;4.30;92.30;;;;;;4964983;28;20463;-57
2021/01/18 11:44:29;;;;;;;9.10;3.30;;;4.30;92.00;;;;;;4963908;28;20113;-57
2021/01/18 11:46:58;;;;;;;5.57;3.17;;;4.40;91.90;;;;;;4966230;28;20129;-58
2021/01/18 11:49:24;;;;;;;11.77;3.85;;;4.30;91.90;;;;;;4967960;28;20035;-59
2021/01/18 11:51:50;;;;;;;12.35;3.67;;;4.30;91.90;;;;;;4984511;28;20090;-57
2021/01/18 11:54:15;;;;;;;7.95;2.83;;;4.40;91.90;;;;;;4968372;28;20054;-58
2021/01/18 11:56:41;;;;;;;10.63;4.20;;;4.40;91.90;;;;;;4986378;28;20510;-59
2021/01/18 11:59:07;;;;;;;13.40;3.67;;;4.40;91.90;;;;;;4986007;28;20880;-60
2021/01/18 12:01:32;;;;;;;9.35;3.13;;;4.40;91.80;;;;;;4985029;28;20294;-58
2021/01/18 12:03:58;;;;;;;11.45;3.40;;;4.50;91.90;;;;;;4964033;28;20090;-58
2021/01/18 12:06:32;;;;;;;8.55;3.38;;;4.40;91.80;;;;;;4958028;28;20039;-57
2021/01/18 12:08:58;;;;;;;8.23;3.20;;;4.50;91.90;;;;;;4965269;28;20027;-59
2021/01/18 12:11:23;;;;;;;11.18;3.45;;;4.50;91.80;;;;;;4963494;28;20030;-58
2021/01/18 12:13:49;;;;;;;10.10;3.50;;;4.50;91.80;;;;;;4969087;28;20395;-59
2021/01/18 12:16:24;;;;;;;9.23;3.60;;;4.50;91.80;;;;;;4964096;28;20459;-57
2021/01/18 12:18:50;;;;;;;11.55;3.60;;;4.50;91.80;;;;;;4967600;28;20045;-59
2021/01/18 12:21:16;;;;;;;9.32;3.45;;;4.50;91.80;;;;;;4965001;28;20047;-59
2021/01/18 12:23:41;;;;;;;8.88;3.30;;;4.50;91.70;;;;;;4969474;28;20049;-58
2021/01/18 12:26:07;;;;;;;6.40;2.88;;;4.50;91.70;;;;;;4962359;28;20491;-58
2021/01/18 12:28:33;;;;;;;6.75;2.83;;;4.50;91.70;;;;;;4968926;28;20054;-57
2021/01/18 12:30:59;;;;;;;9.57;3.17;;;4.50;91.70;;;;;;4978418;28;20129;-57
2021/01/18 12:33:24;;;;;;;6.13;2.70;;;4.50;91.70;;;;;;4972357;28;20040;-58
2021/01/18 12:35:50;;;;;;;8.07;2.83;;;4.60;91.70;;;;;;4989261;28;20528;-59
2021/01/18 12:38:16;;;;;;;10.73;3.30;;;4.60;91.60;;;;;;4961896;28;20031;-58
2021/01/18 12:40:41;;;;;;;9.75;3.63;;;4.60;91.60;;;;;;4987647;28;20026;-59
2021/01/18 12:43:07;;;;;;;9.05;3.03;;;4.60;91.50;;;;;;4993048;28;20036;-61
2021/01/18 12:45:32;;;;;;;5.28;3.10;;;4.60;91.50;;;;;;4981867;28;20356;-58
2021/01/18 12:47:58;;;;;;;6.07;3.05;;;4.60;91.50;;;;;;4987371;28;20415;-57
2021/01/18 12:50:23;;;;;;;4.60;2.78;;;4.60;91.70;;;;;;4995814;28;20034;-59
2021/01/18 12:52:50;;;;;;;5.05;3.00;;;4.70;91.50;;;;;;4991101;28;20022;-57
2021/01/18 12:55:16;;;;;;;9.18;3.40;;;4.70;91.50;;;;;;4991388;28;20019;-57
2021/01/18 12:57:41;;;;;;;9.25;2.85;;;4.70;91.40;;;;;;4990008;28;20164;-58
2021/01/18 13:00:07;;;;;;;8.77;2.70;;;4.70;91.40;;;;;;4986617;28;20051;-59
2021/01/18 13:02:33;;;;;;;7.00;3.17;;;4.70;91.40;;;;;;4983691;28;20062;-57
2021/01/18 13:04:58;;;;;;;9.32;2.90;;;4.70;91.30;;;;;;4976027;28;20053;-59
2021/01/18 13:07:24;;;;;;;5.47;2.70;;;4.70;91.30;;;;;;4984916;28;20459;-58
2021/01/18 13:09:49;;;;;;;6.72;2.60;;;4.80;91.30;;;;;;4989202;28;20113;-58